createdAt,value
2019-03-11T00:00:20.423Z,2.36
2019-03-11T00:02:52.647Z,2.33
2019-03-11T00:05:22.949Z,2.38
2019-03-11T00:07:57.823Z,2.28
2019-03-11T00:10:27.974Z,2.28
2019-03-11T00:12:58.218Z,2.29
2019-03-11T00:15:28.333Z,2.32
2019-03-11T00:18:01.120Z,2.28
2019-03-11T00:20:31.269Z,2.33
2019-03-11T00:23:01.750Z,2.16
2019-03-11T00:25:31.846Z,2.13
2019-03-11T00:28:02.001Z,2.11
2019-03-11T00:30:32.233Z,2.12
2019-03-11T00:33:02.450Z,2.10
2019-03-11T00:35:32.572Z,2.10
2019-03-11T00:38:02.783Z,2.09
2019-03-11T00:40:32.901Z,2.06
2019-03-11T00:43:04.403Z,2.01
2019-03-11T00:45:35.974Z,2.06
2019-03-11T00:48:06.715Z,2.02
2019-03-11T00:50:36.906Z,2.09
2019-03-11T00:53:07.132Z,2.08
2019-03-11T00:55:37.245Z,2.07
2019-03-11T00:58:09.701Z,2.07
2019-03-11T01:00:43.511Z,2.10
2019-03-11T01:03:13.804Z,2.09
2019-03-11T01:05:43.994Z,2.21
2019-03-11T01:08:14.181Z,2.12
2019-03-11T01:10:44.313Z,2.25
2019-03-11T01:13:14.535Z,2.29
2019-03-11T01:15:44.943Z,2.30
2019-03-11T01:18:15.167Z,2.35
2019-03-11T01:20:45.309Z,2.41
2019-03-11T01:23:19.459Z,2.44
2019-03-11T01:25:49.598Z,2.40
2019-03-11T01:28:19.780Z,2.33
2019-03-11T01:30:52.328Z,2.23
2019-03-11T01:33:22.571Z,2.24
2019-03-11T01:35:52.776Z,2.19
2019-03-11T01:38:25.294Z,2.15
2019-03-11T01:40:55.426Z,2.21
2019-03-11T01:43:25.552Z,2.25
2019-03-11T01:45:56.871Z,2.16
2019-03-11T01:48:26.991Z,2.27
2019-03-11T01:50:57.895Z,2.29
2019-03-11T01:53:29.020Z,2.26
2019-03-11T01:56:00.180Z,2.39
2019-03-11T01:58:30.338Z,2.40
2019-03-11T02:01:00.504Z,2.47
2019-03-11T02:03:38.853Z,2.43
2019-03-11T02:06:30.800Z,2.42
2019-03-11T02:09:08.535Z,2.39
2019-03-11T02:11:38.797Z,2.40
2019-03-11T02:14:13.564Z,2.39
2019-03-11T02:16:43.808Z,2.39
2019-03-11T02:19:17.847Z,2.39
2019-03-11T02:21:50.654Z,2.44
2019-03-11T02:24:20.773Z,2.41
2019-03-11T02:26:52.593Z,2.40
2019-03-11T02:29:25.378Z,2.42
2019-03-11T02:31:59.654Z,2.41
2019-03-11T02:34:29.959Z,2.40
2019-03-11T02:37:00.116Z,2.42
2019-03-11T02:39:34.645Z,2.41
2019-03-11T02:42:06.378Z,2.40
2019-03-11T02:44:36.501Z,2.32
2019-03-11T02:47:08.637Z,2.31
2019-03-11T02:49:43.782Z,2.36
2019-03-11T02:52:13.119Z,2.46
2019-03-11T02:54:45.315Z,2.54
2019-03-11T02:57:15.462Z,2.55
2019-03-11T02:59:46.004Z,2.52
2019-03-11T03:02:41.174Z,2.53
2019-03-11T03:05:25.964Z,2.44
2019-03-11T03:07:59.071Z,2.49
2019-03-11T03:10:31.281Z,2.47
2019-03-11T03:13:01.622Z,2.46
2019-03-11T03:15:31.735Z,2.40
2019-03-11T03:18:24.005Z,2.35
2019-03-11T03:20:54.195Z,2.45
2019-03-11T03:23:24.403Z,2.45
2019-03-11T03:25:54.559Z,2.45
2019-03-11T03:28:24.735Z,2.47
2019-03-11T03:30:56.111Z,2.49
2019-03-11T03:33:29.301Z,2.50
2019-03-11T03:35:59.801Z,2.56
2019-03-11T03:38:31.371Z,2.65
2019-03-11T03:41:02.250Z,2.70
2019-03-11T03:43:33.247Z,2.72
2019-03-11T03:46:17.430Z,2.75
2019-03-11T03:48:36.012Z,2.89
2019-03-11T03:51:07.094Z,2.81
2019-03-11T03:53:47.074Z,2.75
2019-03-11T03:56:20.188Z,2.62
2019-03-11T03:58:50.611Z,2.75
2019-03-11T04:01:21.244Z,2.65
2019-03-11T04:03:52.288Z,2.66
2019-03-11T04:06:24.605Z,2.47
2019-03-11T04:08:58.037Z,2.52
2019-03-11T04:11:32.546Z,2.48
2019-03-11T04:14:04.040Z,2.49
2019-03-11T04:16:34.325Z,2.51
2019-03-11T04:19:07.188Z,2.51
2019-03-11T04:21:38.800Z,2.49
2019-03-11T04:24:10.806Z,2.44
2019-03-11T04:26:41.027Z,2.47
2019-03-11T04:29:11.458Z,2.37
2019-03-11T04:31:48.387Z,2.41
2019-03-11T04:34:24.092Z,2.49
2019-03-11T04:36:54.628Z,2.29
2019-03-11T04:39:25.854Z,2.23
2019-03-11T04:41:56.514Z,2.28
2019-03-11T04:44:29.754Z,2.38
2019-03-11T04:47:09.154Z,2.42
2019-03-11T04:49:42.443Z,2.46
2019-03-11T04:52:15.311Z,2.35
2019-03-11T04:54:45.429Z,2.46
2019-03-11T04:57:15.624Z,2.55
2019-03-11T04:59:48.778Z,2.60
2019-03-11T05:02:21.729Z,2.58
2019-03-11T05:04:53.169Z,2.57
2019-03-11T05:07:23.377Z,2.60
2019-03-11T05:09:53.678Z,2.50
2019-03-11T05:12:23.942Z,2.49
2019-03-11T05:14:56.219Z,2.45
2019-03-11T05:17:34.419Z,2.48
2019-03-11T05:20:11.733Z,2.39
2019-03-11T05:22:41.929Z,2.38
2019-03-11T05:25:14.230Z,2.32
2019-03-11T05:27:47.695Z,2.40
2019-03-11T05:30:22.232Z,2.43
2019-03-11T05:33:01.247Z,2.48
2019-03-11T05:35:34.644Z,2.47
2019-03-11T05:38:05.965Z,2.45
2019-03-11T05:40:39.261Z,2.42
2019-03-11T05:43:09.415Z,2.45
2019-03-11T05:45:39.555Z,2.39
2019-03-11T05:48:15.890Z,2.29
2019-03-11T05:50:46.037Z,2.14
2019-03-11T05:53:16.294Z,2.26
2019-03-11T05:55:46.563Z,2.23
2019-03-11T05:58:16.793Z,2.30
2019-03-11T06:00:46.919Z,2.27
2019-03-11T06:03:17.745Z,2.34
2019-03-11T06:05:48.153Z,2.40
2019-03-11T06:08:23.898Z,2.42
2019-03-11T06:10:54.268Z,2.33
2019-03-11T06:13:35.340Z,2.46
2019-03-11T06:15:57.642Z,2.52
2019-03-11T06:18:41.010Z,2.48
2019-03-11T06:21:29.053Z,2.60
2019-03-11T06:23:59.176Z,2.54
2019-03-11T06:26:30.149Z,2.66
2019-03-11T06:29:02.052Z,2.59
2019-03-11T06:31:32.309Z,2.62
2019-03-11T06:34:03.712Z,2.65
2019-03-11T06:36:34.392Z,2.64
2019-03-11T06:39:06.320Z,2.65
2019-03-11T06:41:36.516Z,2.63
2019-03-11T06:44:06.770Z,2.75
2019-03-11T06:46:37.199Z,2.68
2019-03-11T06:49:07.939Z,2.84
2019-03-11T06:51:42.990Z,2.87
2019-03-11T06:54:13.313Z,2.79
2019-03-11T06:56:43.539Z,2.97
2019-03-11T06:59:13.726Z,2.99
2019-03-11T07:01:45.409Z,3.02
2019-03-11T07:04:15.572Z,3.11
2019-03-11T07:06:45.730Z,3.20
2019-03-11T07:09:17.426Z,3.33
2019-03-11T07:11:47.617Z,3.36
2019-03-11T07:14:17.821Z,3.32
2019-03-11T07:16:48.018Z,3.34
2019-03-11T07:19:18.298Z,3.45
2019-03-11T07:21:52.408Z,3.49
2019-03-11T07:24:22.853Z,3.47
2019-03-11T07:26:56.617Z,3.55
2019-03-11T07:29:26.884Z,3.83
2019-03-11T07:31:57.788Z,3.81
2019-03-11T07:34:28.270Z,3.85
2019-03-11T07:37:00.278Z,3.86
2019-03-11T07:39:32.460Z,3.82
2019-03-11T07:42:07.922Z,3.85
2019-03-11T07:44:38.166Z,3.86
2019-03-11T07:47:08.506Z,3.98
2019-03-11T07:49:39.382Z,4.16
2019-03-11T07:52:10.988Z,4.24
2019-03-11T07:54:41.182Z,4.11
2019-03-11T07:57:12.709Z,3.95
2019-03-11T07:59:42.855Z,4.09
2019-03-11T08:02:15.224Z,4.13
2019-03-11T08:04:49.052Z,4.37
2019-03-11T08:07:20.333Z,4.51
2019-03-11T08:09:50.706Z,4.39
2019-03-11T08:12:20.928Z,4.41
2019-03-11T08:14:51.235Z,4.39
2019-03-11T08:17:21.398Z,4.52
2019-03-11T08:19:53.443Z,4.62
2019-03-11T08:22:25.728Z,4.37
2019-03-11T08:24:55.954Z,4.39
2019-03-11T08:27:27.040Z,4.39
2019-03-11T08:29:59.532Z,4.40
2019-03-11T08:32:29.592Z,4.57
2019-03-11T08:34:59.816Z,4.46
2019-03-11T08:37:32.906Z,4.61
2019-03-11T08:40:05.201Z,4.81
2019-03-11T08:42:35.339Z,4.97
2019-03-11T08:45:06.423Z,4.97
2019-03-11T08:47:37.780Z,4.93
2019-03-11T08:50:11.912Z,5.19
2019-03-11T08:52:53.862Z,4.77
2019-03-11T08:55:25.616Z,4.76
2019-03-11T08:57:56.730Z,4.78
2019-03-11T09:00:26.879Z,4.92
2019-03-11T09:02:57.414Z,4.94
2019-03-11T09:05:27.655Z,5.03
2019-03-11T09:07:57.984Z,4.71
2019-03-11T09:10:31.396Z,4.78
2019-03-11T09:13:01.910Z,4.99
2019-03-11T09:15:36.808Z,4.73
2019-03-11T09:18:07.127Z,4.82
2019-03-11T09:20:37.371Z,4.89
2019-03-11T09:23:07.623Z,4.81
2019-03-11T09:25:38.036Z,4.85
2019-03-11T09:28:08.303Z,4.93
2019-03-11T09:30:45.089Z,4.67
2019-03-11T09:33:15.721Z,4.61
2019-03-11T09:35:46.716Z,4.71
2019-03-11T09:38:18.406Z,4.74
2019-03-11T09:40:50.470Z,4.48
2019-03-11T09:43:20.875Z,4.39
2019-03-11T09:45:51.189Z,4.55
2019-03-11T09:48:21.758Z,4.82
2019-03-11T09:50:59.224Z,4.78
2019-03-11T09:53:30.545Z,4.85
2019-03-11T09:56:04.260Z,4.49
2019-03-11T09:58:34.545Z,4.56
2019-03-11T10:01:04.967Z,4.39
2019-03-11T10:03:35.165Z,4.21
2019-03-11T10:06:05.805Z,4.20
2019-03-11T10:08:36.001Z,4.38
2019-03-11T10:11:06.250Z,4.54
2019-03-11T10:13:36.446Z,4.65
2019-03-11T10:16:08.227Z,4.80
2019-03-11T10:18:41.121Z,5.15
2019-03-11T10:21:11.343Z,5.37
2019-03-11T10:23:41.644Z,5.13
2019-03-11T10:26:14.061Z,5.03
2019-03-11T10:28:44.263Z,5.07
2019-03-11T10:31:14.517Z,5.18
2019-03-11T10:33:44.809Z,5.63
2019-03-11T10:36:16.200Z,5.51
2019-03-11T10:38:46.431Z,5.82
2019-03-11T10:41:19.133Z,5.53
2019-03-11T10:43:50.941Z,5.64
2019-03-11T10:46:21.235Z,5.30
2019-03-11T10:48:51.485Z,5.61
2019-03-11T10:51:23.276Z,5.65
2019-03-11T10:53:53.539Z,5.73
2019-03-11T10:56:24.049Z,5.66
2019-03-11T10:58:57.102Z,5.83
2019-03-11T11:01:27.656Z,5.90
2019-03-11T11:03:58.188Z,5.83
2019-03-11T11:06:28.572Z,5.87
2019-03-11T11:08:59.283Z,5.46
2019-03-11T11:11:29.720Z,5.23
2019-03-11T11:13:59.846Z,5.25
2019-03-11T11:16:30.030Z,5.41
2019-03-11T11:19:05.045Z,5.45
2019-03-11T11:21:35.616Z,5.50
2019-03-11T11:24:06.088Z,5.91
2019-03-11T11:26:36.618Z,5.87
2019-03-11T11:29:09.584Z,5.86
2019-03-11T11:31:42.789Z,5.98
2019-03-11T11:34:17.698Z,5.72
2019-03-11T11:36:48.740Z,5.88
2019-03-11T11:39:20.914Z,6.17
2019-03-11T11:41:51.117Z,6.24
2019-03-11T11:44:22.254Z,6.38
2019-03-11T11:46:52.785Z,6.34
2019-03-11T11:49:23.545Z,6.23
2019-03-11T11:51:53.994Z,6.31
2019-03-11T11:54:25.911Z,6.44
2019-03-11T11:56:57.186Z,6.27
2019-03-11T11:59:27.876Z,6.51
2019-03-11T12:02:04.047Z,6.66
2019-03-11T12:04:41.944Z,6.51
2019-03-11T12:07:13.162Z,6.57
2019-03-11T12:09:44.726Z,6.49
2019-03-11T12:12:15.374Z,6.39
2019-03-11T12:14:45.587Z,6.27
2019-03-11T12:17:17.778Z,6.24
2019-03-11T12:19:48.360Z,6.11
2019-03-11T12:22:23.430Z,6.06
2019-03-11T12:24:56.031Z,5.87
2019-03-11T12:27:25.924Z,5.61
2019-03-11T12:29:58.680Z,5.52
2019-03-11T12:32:29.008Z,5.72
2019-03-11T12:35:07.658Z,5.69
2019-03-11T12:37:41.129Z,5.69
2019-03-11T12:40:13.163Z,5.88
2019-03-11T12:42:43.800Z,6.33
2019-03-11T12:45:14.855Z,6.27
2019-03-11T12:47:45.176Z,6.49
2019-03-11T12:50:17.034Z,6.48
2019-03-11T12:52:47.172Z,6.25
2019-03-11T12:55:21.113Z,6.18
2019-03-11T12:57:59.655Z,6.14
2019-03-11T13:00:29.848Z,5.77
2019-03-11T13:03:00.814Z,5.39
2019-03-11T13:05:31.138Z,5.43
2019-03-11T13:08:02.980Z,5.06
2019-03-11T13:10:33.220Z,4.45
2019-03-11T13:13:03.482Z,4.19
2019-03-11T13:15:33.705Z,4.14
2019-03-11T13:18:41.654Z,3.71
2019-03-11T13:21:37.947Z,3.89
2019-03-11T13:24:09.011Z,3.76
2019-03-11T13:26:39.397Z,3.52
2019-03-11T13:29:27.706Z,3.49
2019-03-11T13:31:58.989Z,3.80
2019-03-11T13:34:29.149Z,3.80
2019-03-11T13:36:59.484Z,3.86
2019-03-11T13:39:29.669Z,4.08
2019-03-11T13:42:00.001Z,4.37
2019-03-11T13:44:30.173Z,4.30
2019-03-11T13:47:00.534Z,4.33
2019-03-11T13:49:33.111Z,4.44
2019-03-11T13:52:08.052Z,4.57
2019-03-11T13:54:40.740Z,4.51
2019-03-11T13:57:11.027Z,4.57
2019-03-11T13:59:41.337Z,4.66
2019-03-11T14:02:31.767Z,5.14
2019-03-11T14:05:01.907Z,5.32
2019-03-11T14:07:36.867Z,5.55
2019-03-11T14:10:10.031Z,5.95
2019-03-11T14:12:42.815Z,5.98
2019-03-11T14:15:15.719Z,5.91
2019-03-11T14:17:46.512Z,5.97
2019-03-11T14:20:19.640Z,5.99
2019-03-11T14:22:49.919Z,5.77
2019-03-11T14:25:20.082Z,5.82
2019-03-11T14:27:55.471Z,5.70
2019-03-11T14:30:25.646Z,5.54
2019-03-11T14:32:56.952Z,5.53
2019-03-11T14:35:31.247Z,5.50
2019-03-11T14:38:03.869Z,5.39
2019-03-11T14:40:34.424Z,5.14
2019-03-11T14:43:04.665Z,5.16
2019-03-11T14:45:35.723Z,5.27
2019-03-11T14:48:06.099Z,5.01
2019-03-11T14:50:36.302Z,4.79
2019-03-11T14:53:08.072Z,4.87
2019-03-11T14:55:55.592Z,4.91
2019-03-11T14:58:38.235Z,4.96
2019-03-11T15:01:10.162Z,5.02
2019-03-11T15:03:40.432Z,5.18
2019-03-11T15:06:10.510Z,5.14
2019-03-11T15:08:42.204Z,5.10
2019-03-11T15:11:12.389Z,5.00
2019-03-11T15:13:42.552Z,4.98
2019-03-11T15:16:12.724Z,4.71
2019-03-11T15:18:43.345Z,4.80
2019-03-11T15:21:13.667Z,4.93
2019-03-11T15:23:43.967Z,5.11
2019-03-11T15:26:24.675Z,5.21
2019-03-11T15:28:50.598Z,5.31
2019-03-11T15:31:23.720Z,5.13
2019-03-11T15:33:54.015Z,4.95
2019-03-11T15:36:33.136Z,5.00
2019-03-11T15:38:58.889Z,4.88
2019-03-11T15:41:33.238Z,4.88
2019-03-11T15:44:03.553Z,4.99
2019-03-11T15:46:39.124Z,4.99
2019-03-11T15:49:05.621Z,5.00
2019-03-11T15:51:38.878Z,5.11
2019-03-11T15:54:09.200Z,5.07
2019-03-11T15:56:39.330Z,5.10
2019-03-11T15:59:11.145Z,5.01
2019-03-11T16:01:41.312Z,4.96
2019-03-11T16:04:15.514Z,5.09
2019-03-11T16:06:45.710Z,4.97
2019-03-11T16:09:19.680Z,4.96
2019-03-11T16:11:49.811Z,5.13
2019-03-11T16:14:20.004Z,5.10
2019-03-11T16:16:52.977Z,4.97
2019-03-11T16:19:23.221Z,5.06
2019-03-11T16:21:53.358Z,4.91
2019-03-11T16:24:23.617Z,5.00
2019-03-11T16:26:53.712Z,4.84
2019-03-11T16:29:23.868Z,4.84
2019-03-11T16:31:54.963Z,4.95
2019-03-11T16:34:26.764Z,4.69
2019-03-11T16:36:57.176Z,4.56
2019-03-11T16:39:29.154Z,4.33
2019-03-11T16:41:59.708Z,4.35
2019-03-11T16:44:29.930Z,4.44
2019-03-11T16:47:00.812Z,4.30
2019-03-11T16:49:30.985Z,4.44
2019-03-11T16:52:02.374Z,4.49
2019-03-11T16:54:32.690Z,4.42
2019-03-11T16:57:02.814Z,4.41
2019-03-11T16:59:32.990Z,4.34
2019-03-11T17:02:03.187Z,4.11
2019-03-11T17:04:33.395Z,4.25
2019-03-11T17:07:03.516Z,4.42
2019-03-11T17:09:34.199Z,4.34
2019-03-11T17:12:04.367Z,4.21
2019-03-11T17:14:34.633Z,4.24
2019-03-11T17:17:04.819Z,4.37
2019-03-11T17:19:35.004Z,4.42
2019-03-11T17:22:05.468Z,4.32
2019-03-11T17:24:35.816Z,4.42
2019-03-11T17:27:06.644Z,4.46
2019-03-11T17:29:37.658Z,4.42
2019-03-11T17:32:07.912Z,4.45
2019-03-11T17:34:38.335Z,4.40
2019-03-11T17:37:09.584Z,4.42
2019-03-11T17:39:40.018Z,4.38
2019-03-11T17:42:10.346Z,4.38
2019-03-11T17:44:40.571Z,4.28
2019-03-11T17:47:13.241Z,4.37
2019-03-11T17:49:43.594Z,4.32
2019-03-11T17:52:13.755Z,4.23
2019-03-11T17:54:43.959Z,4.24
2019-03-11T17:57:16.222Z,4.15
2019-03-11T17:59:46.407Z,4.19
2019-03-11T18:02:19.075Z,4.33
2019-03-11T18:04:51.164Z,4.19
2019-03-11T18:07:25.737Z,4.23
2019-03-11T18:09:56.001Z,4.24
2019-03-11T18:12:26.310Z,4.32
2019-03-11T18:14:56.665Z,4.30
2019-03-11T18:17:31.135Z,4.33
2019-03-11T18:20:01.608Z,4.33
2019-03-11T18:22:33.532Z,4.28
2019-03-11T18:25:03.671Z,4.24
2019-03-11T18:27:33.929Z,4.33
2019-03-11T18:30:04.782Z,4.25
2019-03-11T18:32:35.128Z,4.19
2019-03-11T18:35:05.870Z,4.17
2019-03-11T18:37:36.087Z,4.12
2019-03-11T18:40:08.341Z,4.16
2019-03-11T18:42:41.728Z,4.19
2019-03-11T18:45:14.768Z,4.25
2019-03-11T18:47:44.956Z,4.35
2019-03-11T18:50:15.461Z,4.22
2019-03-11T18:52:48.015Z,4.17
2019-03-11T18:55:18.361Z,4.06
2019-03-11T18:57:48.923Z,3.93
2019-03-11T19:00:19.532Z,4.04
2019-03-11T19:02:49.830Z,4.04
2019-03-11T19:05:20.329Z,4.08
2019-03-11T19:07:50.841Z,4.01
2019-03-11T19:10:21.333Z,4.11
2019-03-11T19:12:51.772Z,4.07
2019-03-11T19:15:22.088Z,4.03
2019-03-11T19:17:52.343Z,4.12
2019-03-11T19:20:22.875Z,4.13
2019-03-11T19:22:54.379Z,3.99
2019-03-11T19:25:24.799Z,3.96
2019-03-11T19:28:02.445Z,3.99
2019-03-11T19:30:36.269Z,4.01
2019-03-11T19:33:06.812Z,4.03
2019-03-11T19:35:37.148Z,4.02
2019-03-11T19:38:10.327Z,3.99
2019-03-11T19:40:40.673Z,4.07
2019-03-11T19:43:11.031Z,4.12
2019-03-11T19:45:41.478Z,3.98
2019-03-11T19:48:13.328Z,3.92
2019-03-11T19:50:47.061Z,4.01
2019-03-11T19:53:18.195Z,4.03
2019-03-11T19:55:54.432Z,4.08
2019-03-11T19:58:24.783Z,4.15
2019-03-11T20:00:55.104Z,4.10
2019-03-11T20:03:30.358Z,4.10
2019-03-11T20:05:57.577Z,3.98
2019-03-11T20:08:28.092Z,4.00
2019-03-11T20:11:10.060Z,4.07
2019-03-11T20:13:36.706Z,4.05
2019-03-11T20:16:09.918Z,4.02
2019-03-11T20:18:41.364Z,4.11
2019-03-11T20:21:14.661Z,4.10
2019-03-11T20:23:45.366Z,4.14
2019-03-11T20:26:18.672Z,4.08
2019-03-11T20:28:48.771Z,4.14
2019-03-11T20:31:20.204Z,4.11
2019-03-11T20:33:50.803Z,4.19
2019-03-11T20:36:24.855Z,4.12
2019-03-11T20:38:54.034Z,4.14
2019-03-11T20:41:24.425Z,4.17
2019-03-11T20:43:55.257Z,4.12
2019-03-11T20:46:36.407Z,4.02
2019-03-11T20:49:08.274Z,4.08
2019-03-11T20:51:41.871Z,4.07
2019-03-11T20:54:21.678Z,4.02
2019-03-11T20:56:52.297Z,4.03
2019-03-11T20:59:22.900Z,4.04
2019-03-11T21:01:53.150Z,3.98
2019-03-11T21:04:27.131Z,4.18
2019-03-11T21:07:08.557Z,4.08
2019-03-11T21:09:43.499Z,4.20
2019-03-11T21:12:13.792Z,4.24
2019-03-11T21:14:43.988Z,4.20
2019-03-11T21:17:26.055Z,4.12
2019-03-11T21:19:49.044Z,4.14
2019-03-11T21:22:19.207Z,4.21
2019-03-11T21:24:59.202Z,4.20
2019-03-11T21:27:21.842Z,4.24
2019-03-11T21:29:52.016Z,4.25
2019-03-11T21:32:22.659Z,4.35
2019-03-11T21:34:52.912Z,4.34
2019-03-11T21:37:23.561Z,4.28
2019-03-11T21:39:54.327Z,4.18
2019-03-11T21:42:26.227Z,4.12
2019-03-11T21:44:59.551Z,4.07
2019-03-11T21:47:31.918Z,4.08
2019-03-11T21:50:02.431Z,4.08
2019-03-11T21:52:33.049Z,4.21
2019-03-11T21:55:03.513Z,4.11
2019-03-11T21:57:34.778Z,3.99
2019-03-11T22:00:06.583Z,4.06
2019-03-11T22:02:38.365Z,4.25
2019-03-11T22:05:08.618Z,4.22
2019-03-11T22:07:38.718Z,4.24
2019-03-11T22:10:09.842Z,4.31
2019-03-11T22:12:43.166Z,4.27
2019-03-11T22:15:15.180Z,4.21
2019-03-11T22:17:45.296Z,4.28
2019-03-11T22:20:15.662Z,4.31
2019-03-11T22:22:46.839Z,4.25
2019-03-11T22:25:17.174Z,4.34
2019-03-11T22:27:47.319Z,4.36
2019-03-11T22:30:19.151Z,4.40
2019-03-11T22:32:49.276Z,4.40
2019-03-11T22:35:21.701Z,4.44
2019-03-11T22:37:51.915Z,4.51
2019-03-11T22:40:27.149Z,4.50
2019-03-11T22:42:57.782Z,4.46
2019-03-11T22:45:27.986Z,4.43
2019-03-11T22:47:58.106Z,4.50
2019-03-11T22:50:28.204Z,4.45
2019-03-11T22:52:58.470Z,4.41
2019-03-11T22:55:28.662Z,4.42
2019-03-11T22:58:00.300Z,4.30
2019-03-11T23:00:45.388Z,4.20
2019-03-11T23:03:17.133Z,4.16
2019-03-11T23:05:57.733Z,4.07
2019-03-11T23:08:20.128Z,4.07
2019-03-11T23:10:51.622Z,4.03
2019-03-11T23:13:23.164Z,3.98
2019-03-11T23:15:54.571Z,4.07
2019-03-11T23:18:24.716Z,4.04
2019-03-11T23:20:55.109Z,3.94
2019-03-11T23:23:25.267Z,3.92
2019-03-11T23:25:57.445Z,3.94
2019-03-11T23:28:30.514Z,3.95
2019-03-11T23:31:00.739Z,3.96
2019-03-11T23:33:32.740Z,4.04
2019-03-11T23:36:03.066Z,4.14
2019-03-11T23:38:33.469Z,4.25
2019-03-11T23:41:06.244Z,4.37
2019-03-11T23:43:36.468Z,4.21
2019-03-11T23:46:06.603Z,4.28
2019-03-11T23:48:41.219Z,4.35
2019-03-11T23:51:11.341Z,4.38
2019-03-11T23:53:41.458Z,4.30
2019-03-11T23:56:11.619Z,4.42
2019-03-11T23:58:41.761Z,4.39
